Port McNeill, Canada
Current Conditions -  °F | °C
As of 8:00 PM on Friday 24 Oct 2014 (Local Time) from CYZT Reporting Station
Broken Clouds Broken Clouds  
Wind Chill: 43°   Ceiling: 15000
Heat Index: 48°   Visibility: 15mi
Dew Point: 45°   Wind: 12mph
Humidity: 87%   Direction: 110°ESE
Pressure: 29.87"   Gusts: 17mph
Location:  50.58°N, 127.08°W
Report Text: CYZT 250300Z 11010G15KT 15SM FEW070 BKN150 09/07 A2987 RMK AC2AC4 SLP117
Loading
Personal Weather Stations






























Interactive Weather Map
Tropical Storm Tracking
New forecast layout! Learn more

10-Day Weather Forecast

Advertisements
Track Severe Weather on mobile